createdAt,value
2019-04-04T00:02:10.536Z,96222.78
2019-04-04T00:04:42.505Z,96214.73
2019-04-04T00:07:14.464Z,96213.11
2019-04-04T00:09:46.416Z,96212.89
2019-04-04T00:12:18.702Z,96218.97
2019-04-04T00:14:50.664Z,96235.64
2019-04-04T00:17:23.752Z,96234.23
2019-04-04T00:19:55.747Z,96229.77
2019-04-04T00:22:27.808Z,96229.83
2019-04-04T00:25:00.240Z,96233.39
2019-04-04T00:27:32.182Z,96242.75
2019-04-04T00:30:04.324Z,96244.53
2019-04-04T00:32:36.294Z,96231.67
2019-04-04T00:35:08.675Z,96230.17
2019-04-04T00:37:41.489Z,96223.44
2019-04-04T00:40:14.602Z,96216.36
2019-04-04T00:42:49.309Z,96214.48
2019-04-04T00:45:21.275Z,96211.54
2019-04-04T00:47:53.303Z,96203.20
2019-04-04T00:50:25.272Z,96201.91
2019-04-04T00:52:57.333Z,96209.45
2019-04-04T00:55:29.286Z,96207.37
2019-04-04T00:58:01.254Z,96201.03
2019-04-04T01:00:33.255Z,96188.66
2019-04-04T01:03:05.216Z,96183.72
2019-04-04T01:05:37.188Z,96178.84
2019-04-04T01:08:09.161Z,96185.00
2019-04-04T01:10:41.127Z,96184.34
2019-04-04T01:13:13.088Z,96185.47
2019-04-04T01:15:45.065Z,96172.84
2019-04-04T01:18:17.354Z,96169.23
2019-04-04T01:20:50.645Z,96159.14
2019-04-04T01:23:26.856Z,96152.45
2019-04-04T01:25:57.135Z,96143.78
2019-04-04T01:28:29.191Z,96143.48
2019-04-04T01:31:01.296Z,96147.91
2019-04-04T01:33:33.260Z,96143.89
2019-04-04T01:36:05.577Z,96142.30
2019-04-04T01:38:37.511Z,96141.81
2019-04-04T01:41:09.445Z,96144.47
2019-04-04T01:43:41.380Z,96134.73
2019-04-04T01:46:15.258Z,96126.95
2019-04-04T01:48:49.707Z,96122.64
2019-04-04T01:51:20.991Z,96126.91
2019-04-04T01:53:53.468Z,96134.57
2019-04-04T01:56:25.543Z,96132.14
2019-04-04T01:58:57.902Z,96133.73
2019-04-04T02:01:29.871Z,96134.08
2019-04-04T02:04:01.792Z,96132.93
2019-04-04T02:06:33.730Z,96127.97
2019-04-04T02:09:07.854Z,96130.52
2019-04-04T02:11:39.785Z,96128.56
2019-04-04T02:14:12.389Z,96127.02
2019-04-04T02:16:47.527Z,96119.84
2019-04-04T02:19:18.371Z,96115.86
2019-04-04T02:21:50.313Z,96105.47
2019-04-04T02:24:22.663Z,96106.06
2019-04-04T02:26:55.455Z,96099.19
2019-04-04T02:29:27.381Z,96088.38
2019-04-04T02:32:01.832Z,96089.42
2019-04-04T02:34:37.508Z,96081.02
2019-04-04T02:37:07.803Z,96081.38
2019-04-04T02:39:40.014Z,96073.00
2019-04-04T02:42:12.693Z,96081.83
2019-04-04T02:44:44.686Z,96087.77
2019-04-04T02:47:18.198Z,96081.59
2019-04-04T02:49:50.545Z,96083.41
2019-04-04T02:52:22.478Z,96074.30
2019-04-04T02:54:57.008Z,96056.64
2019-04-04T02:57:28.316Z,96045.54
2019-04-04T03:00:00.562Z,96032.91
2019-04-04T03:02:36.159Z,96026.68
2019-04-04T03:05:06.657Z,96026.17
2019-04-04T03:07:38.570Z,96018.30
2019-04-04T03:10:15.137Z,96025.70
2019-04-04T03:12:45.243Z,96028.11
2019-04-04T03:15:17.659Z,96027.84
2019-04-04T03:17:50.421Z,96024.48
2019-04-04T03:20:22.338Z,96014.12
2019-04-04T03:22:54.260Z,96015.33
2019-04-04T03:25:26.157Z,96008.17
2019-04-04T03:27:59.316Z,95999.52
2019-04-04T03:30:31.341Z,96004.00
2019-04-04T03:33:03.274Z,96006.02
2019-04-04T03:35:35.520Z,96013.69
2019-04-04T03:38:07.453Z,96007.27
2019-04-04T03:40:41.814Z,96007.23
2019-04-04T03:43:15.902Z,96012.48
2019-04-04T03:45:47.071Z,96015.75
2019-04-04T03:48:19.002Z,96008.92
2019-04-04T03:50:50.929Z,96013.17
2019-04-04T03:53:23.351Z,96011.28
2019-04-04T03:56:00.148Z,96004.56
2019-04-04T03:58:30.286Z,95997.98
2019-04-04T04:01:02.257Z,95987.02
2019-04-04T04:03:34.184Z,95984.68
2019-04-04T04:06:09.107Z,95997.59
2019-04-04T04:08:40.163Z,96003.80
2019-04-04T04:11:12.089Z,95988.30
2019-04-04T04:13:44.025Z,95985.91
2019-04-04T04:16:15.975Z,95985.75
2019-04-04T04:18:47.875Z,95981.11
2019-04-04T04:21:19.799Z,95972.59
2019-04-04T04:23:56.195Z,95961.36
2019-04-04T04:26:26.212Z,95964.10
2019-04-04T04:28:58.548Z,95969.13
2019-04-04T04:31:30.908Z,95959.67
2019-04-04T04:34:03.267Z,95963.09
2019-04-04T04:36:35.203Z,95968.74
2019-04-04T04:39:08.138Z,95969.63
2019-04-04T04:41:40.490Z,95957.83
2019-04-04T04:44:12.843Z,95950.93
2019-04-04T04:46:44.743Z,95941.30
2019-04-04T04:49:17.095Z,95928.01
2019-04-04T04:51:49.712Z,95920.19
2019-04-04T04:54:22.724Z,95902.77
2019-04-04T04:56:55.448Z,95904.38
2019-04-04T04:59:27.425Z,95918.03
2019-04-04T05:01:59.671Z,95926.60
2019-04-04T05:04:31.609Z,95927.50
2019-04-04T05:07:07.131Z,95938.69
2019-04-04T05:09:37.640Z,95932.81
2019-04-04T05:12:09.720Z,95924.38
2019-04-04T05:14:42.165Z,95908.42
2019-04-04T05:17:14.432Z,95897.20
2019-04-04T05:19:48.155Z,95881.72
2019-04-04T05:22:20.010Z,95881.08
2019-04-04T05:25:06.777Z,95894.66
2019-04-04T05:27:26.316Z,95891.77
2019-04-04T05:29:58.249Z,95889.86
2019-04-04T05:32:30.612Z,95886.84
2019-04-04T05:35:02.569Z,95887.83
2019-04-04T05:37:37.873Z,95883.36
2019-04-04T05:40:09.945Z,95875.48
2019-04-04T05:42:41.862Z,95868.63
2019-04-04T05:45:15.030Z,95868.18
2019-04-04T05:47:47.011Z,95854.92
2019-04-04T05:50:18.942Z,95858.77
2019-04-04T05:52:50.869Z,95873.33
2019-04-04T05:55:22.839Z,95873.49
2019-04-04T05:57:55.098Z,95860.06
2019-04-04T06:00:27.952Z,95850.84
2019-04-04T06:03:00.603Z,95853.61
2019-04-04T06:05:32.889Z,95831.25
2019-04-04T06:08:07.832Z,95826.05
2019-04-04T06:10:38.481Z,95823.84
2019-04-04T06:13:10.435Z,95819.55
2019-04-04T06:15:42.393Z,95823.89
2019-04-04T06:18:15.054Z,95819.11
2019-04-04T06:20:48.666Z,95818.18
2019-04-04T06:23:21.135Z,95818.06
2019-04-04T06:25:53.831Z,95812.95
2019-04-04T06:28:25.760Z,95817.80
2019-04-04T06:31:00.661Z,95814.77
2019-04-04T06:33:34.933Z,95805.66
2019-04-04T06:36:05.358Z,95808.72
2019-04-04T06:38:37.721Z,95808.77
2019-04-04T06:41:09.745Z,95799.81
2019-04-04T06:43:42.176Z,95792.65
2019-04-04T06:46:18.957Z,95773.41
2019-04-04T06:48:48.721Z,95767.33
2019-04-04T06:51:20.756Z,95746.17
2019-04-04T06:53:53.793Z,95745.22
2019-04-04T06:56:26.839Z,95740.30
2019-04-04T06:58:59.303Z,95738.84
2019-04-04T07:01:32.131Z,95736.91
2019-04-04T07:04:04.547Z,95739.14
2019-04-04T07:06:37.493Z,95743.30
2019-04-04T07:09:10.113Z,95746.00
2019-04-04T07:11:42.882Z,95731.34
2019-04-04T07:14:15.286Z,95721.85
2019-04-04T07:16:47.369Z,95713.90
2019-04-04T07:19:19.399Z,95716.38
2019-04-04T07:21:52.027Z,95708.23
2019-04-04T07:24:24.956Z,95706.45
2019-04-04T07:26:57.064Z,95712.63
2019-04-04T07:29:30.097Z,95713.52
2019-04-04T07:32:02.138Z,95718.36
2019-04-04T07:34:34.173Z,95711.48
2019-04-04T07:37:07.149Z,95719.48
2019-04-04T07:39:39.599Z,95725.99
2019-04-04T07:42:11.698Z,95733.17
2019-04-04T07:44:43.796Z,95729.78
2019-04-04T07:47:16.775Z,95731.28
2019-04-04T07:49:49.593Z,95732.26
2019-04-04T07:52:21.805Z,95737.62
2019-04-04T07:54:53.898Z,95725.97
2019-04-04T07:57:25.962Z,95728.38
2019-04-04T07:59:58.762Z,95714.27
2019-04-04T08:02:31.196Z,95715.63
2019-04-04T08:05:03.709Z,95716.95
2019-04-04T08:07:36.149Z,95715.22
2019-04-04T08:10:20.007Z,95709.91
2019-04-04T08:12:43.029Z,95708.86
2019-04-04T08:15:15.679Z,95701.36
2019-04-04T08:17:47.888Z,95710.22
2019-04-04T08:20:19.996Z,95699.68
2019-04-04T08:22:52.026Z,95693.09
2019-04-04T08:25:24.250Z,95699.89
2019-04-04T08:27:56.695Z,95711.67
2019-04-04T08:30:29.054Z,95713.59
2019-04-04T08:33:01.897Z,95713.62
2019-04-04T08:35:34.028Z,95712.98
2019-04-04T08:38:06.549Z,95701.92
2019-04-04T08:40:39.391Z,95687.64
2019-04-04T08:43:11.418Z,95683.92
2019-04-04T08:45:43.499Z,95682.90
2019-04-04T08:48:15.851Z,95691.36
2019-04-04T08:50:47.891Z,95689.84
2019-04-04T08:53:19.973Z,95688.48
2019-04-04T08:55:52.112Z,95692.33
2019-04-04T08:58:24.136Z,95687.37
2019-04-04T09:00:56.723Z,95680.69
2019-04-04T09:03:28.903Z,95683.11
2019-04-04T09:06:01.244Z,95684.75
2019-04-04T09:08:33.352Z,95686.81
2019-04-04T09:11:06.316Z,95684.14
2019-04-04T09:13:39.151Z,95686.50
2019-04-04T09:16:11.496Z,95685.57
2019-04-04T09:18:44.363Z,95679.30
2019-04-04T09:21:16.487Z,95685.88
2019-04-04T09:23:48.516Z,95685.88
2019-04-04T09:26:20.667Z,95686.55
2019-04-04T09:28:52.712Z,95678.19
2019-04-04T09:31:24.729Z,95677.63
2019-04-04T09:33:57.173Z,95680.09
2019-04-04T09:36:29.291Z,95685.53
2019-04-04T09:39:01.448Z,95682.64
2019-04-04T09:41:33.471Z,95683.16
2019-04-04T09:44:06.128Z,95675.48
2019-04-04T09:46:38.387Z,95677.98
2019-04-04T09:49:12.922Z,95673.09
2019-04-04T09:51:45.167Z,95664.39
2019-04-04T09:54:19.324Z,95668.75
2019-04-04T09:56:51.654Z,95662.52
2019-04-04T09:59:23.989Z,95662.97
2019-04-04T10:01:56.081Z,95669.31
2019-04-04T10:04:28.182Z,95664.39
2019-04-04T10:07:00.201Z,95666.62
2019-04-04T10:09:32.673Z,95668.59
2019-04-04T10:12:04.780Z,95679.41
2019-04-04T10:14:37.201Z,95681.72
2019-04-04T10:17:09.304Z,95678.23
2019-04-04T10:19:41.437Z,95670.32
2019-04-04T10:22:13.523Z,95669.14
2019-04-04T10:24:45.969Z,95666.88
2019-04-04T10:27:17.986Z,95666.92
2019-04-04T10:29:50.930Z,95670.47
2019-04-04T10:32:23.375Z,95669.92
2019-04-04T10:34:55.400Z,95670.36
2019-04-04T10:37:28.965Z,95674.16
2019-04-04T10:40:01.300Z,95667.06
2019-04-04T10:42:33.394Z,95670.51
2019-04-04T10:45:06.757Z,95669.77
2019-04-04T10:47:39.265Z,95676.85
2019-04-04T10:50:12.591Z,95686.91
2019-04-04T10:52:45.489Z,95679.48
2019-04-04T10:55:18.012Z,95682.32
2019-04-04T10:57:50.126Z,95680.55
2019-04-04T11:00:23.373Z,95684.26
2019-04-04T11:02:55.889Z,95687.11
2019-04-04T11:05:28.398Z,95683.12
2019-04-04T11:08:00.402Z,95676.83
2019-04-04T11:10:32.531Z,95695.92
2019-04-04T11:13:05.046Z,95696.85
2019-04-04T11:15:37.070Z,95699.98
2019-04-04T11:18:09.571Z,95697.38
2019-04-04T11:20:41.612Z,95705.16
2019-04-04T11:23:13.715Z,95707.61
2019-04-04T11:25:46.237Z,95704.84
2019-04-04T11:28:19.067Z,95704.15
2019-04-04T11:30:51.170Z,95701.39
2019-04-04T11:33:23.911Z,95705.50
2019-04-04T11:35:56.664Z,95716.19
2019-04-04T11:38:28.864Z,95715.53
2019-04-04T11:41:01.401Z,95719.30
2019-04-04T11:43:33.955Z,95730.26
2019-04-04T11:46:06.740Z,95729.28
2019-04-04T11:48:38.770Z,95721.45
2019-04-04T11:51:11.425Z,95717.09
2019-04-04T11:53:44.479Z,95722.83
2019-04-04T11:56:16.606Z,95729.73
2019-04-04T11:58:49.050Z,95731.16
2019-04-04T12:01:22.443Z,95720.23
2019-04-04T12:03:55.293Z,95719.48
2019-04-04T12:06:28.244Z,95713.08
2019-04-04T12:09:01.078Z,95702.77
2019-04-04T12:11:33.194Z,95707.08
2019-04-04T12:14:05.944Z,95710.23
2019-04-04T12:16:38.032Z,95713.47
2019-04-04T12:19:11.279Z,95713.45
2019-04-04T12:21:44.292Z,95700.35
2019-04-04T12:24:17.116Z,95701.65
2019-04-04T12:26:49.208Z,95699.78
2019-04-04T12:29:21.854Z,95697.52
2019-04-04T12:31:53.872Z,95702.54
2019-04-04T12:34:26.317Z,95713.25
2019-04-04T12:36:58.419Z,95711.72
2019-04-04T12:39:31.097Z,95706.10
2019-04-04T12:42:04.039Z,95713.08
2019-04-04T12:44:36.633Z,95709.34
2019-04-04T12:47:09.147Z,95713.84
2019-04-04T12:49:41.587Z,95725.38
2019-04-04T12:52:14.410Z,95729.19
2019-04-04T12:54:46.544Z,95731.86
2019-04-04T12:57:18.893Z,95743.81
2019-04-04T12:59:51.416Z,95743.66
2019-04-04T13:02:23.945Z,95751.95
2019-04-04T13:04:56.388Z,95757.16
2019-04-04T13:07:28.814Z,95766.14
2019-04-04T13:10:11.323Z,95778.48
2019-04-04T13:12:36.138Z,95788.50
2019-04-04T13:15:09.895Z,95785.43
2019-04-04T13:17:42.424Z,95789.86
2019-04-04T13:20:15.256Z,95784.98
2019-04-04T13:22:48.057Z,95783.42
2019-04-04T13:25:20.990Z,95790.02
2019-04-04T13:27:53.025Z,95789.42
2019-04-04T13:30:25.156Z,95796.67
2019-04-04T13:32:57.178Z,95796.33
2019-04-04T13:35:30.686Z,95793.28
2019-04-04T13:38:02.713Z,95785.00
2019-04-04T13:40:44.897Z,95781.47
2019-04-04T13:43:09.932Z,95785.39
2019-04-04T13:45:42.075Z,95794.64
2019-04-04T13:48:14.523Z,95793.64
2019-04-04T13:50:47.052Z,95804.92
2019-04-04T13:53:20.853Z,95807.42
2019-04-04T13:55:52.858Z,95805.38
2019-04-04T13:58:24.947Z,95811.95
2019-04-04T14:00:57.373Z,95825.22
2019-04-04T14:03:29.813Z,95820.14
2019-04-04T14:06:02.223Z,95825.20
2019-04-04T14:08:34.650Z,95840.74
2019-04-04T14:11:07.169Z,95834.69
2019-04-04T14:13:40.179Z,95841.61
2019-04-04T14:16:12.614Z,95840.41
2019-04-04T14:18:45.288Z,95853.73
2019-04-04T14:21:17.738Z,95858.25
2019-04-04T14:23:52.060Z,95875.14
2019-04-04T14:26:23.787Z,95886.17
2019-04-04T14:28:56.318Z,95889.83
2019-04-04T14:31:29.462Z,95893.05
2019-04-04T14:34:01.507Z,95899.11
2019-04-04T14:36:33.627Z,95901.10
2019-04-04T14:39:07.410Z,95906.77
2019-04-04T14:41:39.512Z,95913.58
2019-04-04T14:44:13.200Z,95913.13
2019-04-04T14:46:46.051Z,95915.81
2019-04-04T14:49:18.912Z,95918.80
2019-04-04T14:51:51.328Z,95938.92
2019-04-04T14:54:24.275Z,95932.65
2019-04-04T14:56:57.806Z,95936.11
2019-04-04T14:59:29.879Z,95936.15
2019-04-04T15:02:02.616Z,95946.58
2019-04-04T15:04:35.140Z,95950.91
2019-04-04T15:07:07.423Z,95961.37
2019-04-04T15:09:39.571Z,95972.80
2019-04-04T15:12:12.006Z,95974.27
2019-04-04T15:14:44.897Z,95978.00
2019-04-04T15:17:18.047Z,95975.73
2019-04-04T15:19:50.571Z,95972.56
2019-04-04T15:22:23.094Z,95979.45
2019-04-04T15:24:55.432Z,95988.33
2019-04-04T15:27:27.870Z,95993.52
2019-04-04T15:30:00.384Z,96004.36
2019-04-04T15:32:32.582Z,96009.81
2019-04-04T15:35:04.851Z,96005.98
2019-04-04T15:37:36.935Z,96009.98
2019-04-04T15:40:10.184Z,96006.16
2019-04-04T15:42:42.930Z,95999.06
2019-04-04T15:45:15.232Z,95995.50
2019-04-04T15:47:47.631Z,95990.03
2019-04-04T15:50:19.750Z,95989.24
2019-04-04T15:52:52.285Z,95994.56
2019-04-04T15:55:24.315Z,95989.42
2019-04-04T15:57:56.626Z,96002.48
2019-04-04T16:00:29.578Z,96020.70
2019-04-04T16:03:02.112Z,96022.83
2019-04-04T16:05:35.133Z,96019.16
2019-04-04T16:08:07.431Z,96020.59
2019-04-04T16:10:39.540Z,96028.79
2019-04-04T16:13:11.566Z,96034.61
2019-04-04T16:15:44.000Z,96031.84
2019-04-04T16:18:16.084Z,96041.03
2019-04-04T16:20:48.490Z,96051.66
2019-04-04T16:23:20.897Z,96040.86
2019-04-04T16:25:53.412Z,96060.50
2019-04-04T16:28:25.435Z,96067.69
2019-04-04T16:30:57.872Z,96065.91
2019-04-04T16:33:29.954Z,96063.33
2019-04-04T16:36:05.197Z,96058.02
2019-04-04T16:38:36.913Z,96058.00
2019-04-04T16:41:08.898Z,96063.94
2019-04-04T16:43:40.882Z,96067.95
2019-04-04T16:46:13.771Z,96059.92
2019-04-04T16:48:46.756Z,96067.45
2019-04-04T16:51:19.680Z,96064.06
2019-04-04T16:53:52.362Z,96063.92
2019-04-04T16:56:24.749Z,96065.37
2019-04-04T16:58:57.167Z,96077.08
2019-04-04T17:01:29.471Z,96079.17
2019-04-04T17:04:02.207Z,96086.38
2019-04-04T17:06:34.872Z,96086.22
2019-04-04T17:09:09.613Z,96097.95
2019-04-04T17:11:42.281Z,96101.66
2019-04-04T17:14:14.215Z,96104.88
2019-04-04T17:16:46.150Z,96109.86
2019-04-04T17:19:18.330Z,96120.30
2019-04-04T17:21:50.278Z,96130.23
2019-04-04T17:24:22.638Z,96130.03
2019-04-04T17:26:57.399Z,96135.79
2019-04-04T17:29:28.850Z,96130.50
2019-04-04T17:32:01.127Z,96137.55
2019-04-04T17:34:34.065Z,96136.08
2019-04-04T17:37:06.578Z,96132.51
2019-04-04T17:39:38.808Z,96132.95
2019-04-04T17:42:10.749Z,96133.70
2019-04-04T17:44:43.111Z,96141.98
2019-04-04T17:47:15.779Z,96135.90
2019-04-04T17:49:49.236Z,96133.30
2019-04-04T17:52:21.952Z,96150.94
2019-04-04T17:54:54.803Z,96164.66
2019-04-04T17:57:27.231Z,96171.22
2019-04-04T17:59:59.912Z,96176.10
2019-04-04T18:02:33.180Z,96189.25
2019-04-04T18:05:06.965Z,96191.98
2019-04-04T18:07:40.054Z,96199.84
2019-04-04T18:10:13.050Z,96214.59
2019-04-04T18:12:44.995Z,96218.75
2019-04-04T18:15:17.245Z,96226.52
2019-04-04T18:17:50.271Z,96241.10
2019-04-04T18:20:22.777Z,96243.37
2019-04-04T18:22:54.641Z,96247.99
2019-04-04T18:25:27.209Z,96261.73
2019-04-04T18:27:59.554Z,96265.59
2019-04-04T18:30:32.541Z,96270.39
2019-04-04T18:33:06.224Z,96262.84
2019-04-04T18:35:38.593Z,96265.87
2019-04-04T18:38:11.535Z,96268.27
2019-04-04T18:40:44.296Z,96267.76
2019-04-04T18:43:16.240Z,96275.47
2019-04-04T18:45:48.157Z,96282.91
2019-04-04T18:48:20.877Z,96283.13
2019-04-04T18:50:53.536Z,96286.61
2019-04-04T18:53:26.207Z,96282.55
2019-04-04T18:55:58.456Z,96278.17
2019-04-04T18:58:30.388Z,96281.27
2019-04-04T19:01:03.082Z,96291.26
2019-04-04T19:03:36.185Z,96294.54
2019-04-04T19:06:08.959Z,96295.63
2019-04-04T19:08:41.633Z,96298.20
2019-04-04T19:11:13.550Z,96301.48
2019-04-04T19:13:45.848Z,96298.81
2019-04-04T19:16:17.953Z,96289.92
2019-04-04T19:18:50.905Z,96291.52
2019-04-04T19:21:23.672Z,96290.90
2019-04-04T19:23:55.600Z,96284.94
2019-04-04T19:26:27.529Z,96283.27
2019-04-04T19:29:01.075Z,96290.22
2019-04-04T19:31:33.001Z,96288.54
2019-04-04T19:34:05.265Z,96299.55
2019-04-04T19:36:37.495Z,96306.94
2019-04-04T19:39:17.001Z,96309.43
2019-04-04T19:41:50.011Z,96297.17
2019-04-04T19:44:21.935Z,96294.84
2019-04-04T19:46:54.602Z,96294.05
2019-04-04T19:49:26.633Z,96305.23
2019-04-04T19:51:59.380Z,96329.45
2019-04-04T19:54:31.757Z,96336.94
2019-04-04T19:57:04.292Z,96358.19
2019-04-04T19:59:36.758Z,96359.59
2019-04-04T20:02:08.811Z,96363.70
2019-04-04T20:04:41.763Z,96373.44
2019-04-04T20:07:13.797Z,96389.46
2019-04-04T20:09:46.044Z,96393.34
2019-04-04T20:12:18.399Z,96400.97
2019-04-04T20:14:50.691Z,96410.36
2019-04-04T20:17:22.964Z,96419.02
2019-04-04T20:19:54.892Z,96425.56
2019-04-04T20:22:28.247Z,96429.08
2019-04-04T20:25:00.190Z,96430.41
2019-04-04T20:27:32.436Z,96435.23
2019-04-04T20:30:05.491Z,96426.23
2019-04-04T20:32:38.767Z,96439.75
2019-04-04T20:35:12.549Z,96444.05
2019-04-04T20:37:44.604Z,96434.73
2019-04-04T20:40:16.512Z,96421.92
2019-04-04T20:42:48.579Z,96417.70
2019-04-04T20:45:21.404Z,96414.54
2019-04-04T20:47:53.490Z,96409.97
2019-04-04T20:50:25.619Z,96401.66
2019-04-04T20:52:58.420Z,96390.33
2019-04-04T20:55:30.367Z,96376.60
2019-04-04T20:58:02.990Z,96384.08
2019-04-04T21:00:35.326Z,96390.64
2019-04-04T21:03:07.653Z,96402.47
2019-04-04T21:05:41.007Z,96401.21
2019-04-04T21:08:13.803Z,96417.03
2019-04-04T21:10:46.562Z,96434.34
2019-04-04T21:13:19.078Z,96434.41
2019-04-04T21:15:51.645Z,96418.89
2019-04-04T21:18:24.848Z,96420.75
2019-04-04T21:20:56.783Z,96430.92
2019-04-04T21:23:29.732Z,96429.83
2019-04-04T21:26:01.784Z,96430.24
2019-04-04T21:28:33.716Z,96443.13
2019-04-04T21:31:07.486Z,96447.08
2019-04-04T21:33:39.510Z,96446.50
2019-04-04T21:36:11.944Z,96454.27
2019-04-04T21:38:44.979Z,96464.67
2019-04-04T21:41:17.294Z,96479.69
2019-04-04T21:43:49.613Z,96477.58
2019-04-04T21:46:21.959Z,96483.19
2019-04-04T21:48:54.691Z,96482.73
2019-04-04T21:51:27.052Z,96481.74
2019-04-04T21:53:59.485Z,96483.66
2019-04-04T21:56:32.587Z,96485.32
2019-04-04T21:59:04.725Z,96492.68
2019-04-04T22:01:36.841Z,96496.28
2019-04-04T22:04:09.200Z,96500.89
2019-04-04T22:06:41.252Z,96507.53
2019-04-04T22:09:17.495Z,96511.20
2019-04-04T22:11:49.875Z,96513.53
2019-04-04T22:14:22.501Z,96506.52
2019-04-04T22:16:55.105Z,96506.14
2019-04-04T22:19:27.696Z,96511.98
2019-04-04T22:21:59.649Z,96512.58
2019-04-04T22:24:32.122Z,96508.81
2019-04-04T22:27:04.213Z,96506.30
2019-04-04T22:29:36.713Z,96499.53
2019-04-04T22:32:09.232Z,96507.00
2019-04-04T22:34:41.117Z,96516.75
2019-04-04T22:37:13.499Z,96518.86
2019-04-04T22:39:45.601Z,96523.02
2019-04-04T22:42:18.102Z,96531.87
2019-04-04T22:44:52.514Z,96534.08
2019-04-04T22:47:24.568Z,96542.94
2019-04-04T22:49:56.545Z,96540.43
2019-04-04T22:52:29.019Z,96541.25
2019-04-04T22:55:01.036Z,96538.89
2019-04-04T22:57:33.426Z,96537.19
2019-04-04T23:00:06.274Z,96533.98
2019-04-04T23:02:38.233Z,96534.63
2019-04-04T23:05:10.489Z,96547.84
2019-04-04T23:07:42.867Z,96556.20
2019-04-04T23:10:14.871Z,96556.50
2019-04-04T23:12:46.814Z,96559.76
2019-04-04T23:15:18.741Z,96564.59
2019-04-04T23:17:51.001Z,96564.09
2019-04-04T23:20:23.252Z,96562.27
2019-04-04T23:22:55.181Z,96559.23
2019-04-04T23:25:27.121Z,96557.86
2019-04-04T23:27:59.063Z,96556.00
2019-04-04T23:30:31.413Z,96554.20
2019-04-04T23:33:03.770Z,96548.66
2019-04-04T23:35:35.701Z,96550.45
2019-04-04T23:38:08.841Z,96551.22
2019-04-04T23:40:41.192Z,96548.99
2019-04-04T23:43:13.554Z,96545.52
2019-04-04T23:45:45.481Z,96537.20
2019-04-04T23:48:17.842Z,96537.29
2019-04-04T23:50:50.088Z,96532.14
2019-04-04T23:53:22.866Z,96530.69
2019-04-04T23:55:54.797Z,96529.96
2019-04-04T23:58:27.161Z,96531.66
